Time;durP1;ratioP1;P1;durP2;ratioP2;P2;SDS_P1;SDS_P2;PMS_P1;PMS_P2;Temp;Humidity;BMP_temperature;BMP_pressure;BME280_temperature;BME280_humidity;BME280_pressure;Samples;Min_cycle;Max_cycle;Signal;HPM_P1;HPM_P2
2023/08/17 00:00:13;;;;;;;3.00;2.80;;;17.60;99.90;;;;;;475424;248;30961;-74
2023/08/17 00:02:12;;;;;;;2.90;2.60;;;17.60;99.90;;;;;;477586;248;28940;-72
2023/08/17 00:04:13;;;;;;;2.70;2.50;;;17.60;99.90;;;;;;478607;246;28918;-72
2023/08/17 00:06:15;;;;;;;2.80;2.50;;;17.60;99.90;;;;;;474543;249;29044;-72
2023/08/17 00:08:17;;;;;;;5.53;3.17;;;17.50;99.90;;;;;;477133;249;28931;-74
2023/08/17 00:10:20;;;;;;;3.70;2.33;;;17.50;99.90;;;;;;472727;248;29077;-73
2023/08/17 00:12:18;;;;;;;2.97;2.50;;;17.50;99.90;;;;;;470812;252;28837;-75
2023/08/17 00:14:25;;;;;;;4.43;2.57;;;17.60;99.90;;;;;;477934;246;28917;-75
2023/08/17 00:16:24;;;;;;;2.83;2.63;;;17.60;99.90;;;;;;482725;244;28702;-75
2023/08/17 00:18:25;;;;;;;3.00;2.80;;;17.50;99.90;;;;;;479346;245;28808;-75
2023/08/17 00:20:26;;;;;;;2.60;2.40;;;17.50;99.90;;;;;;479285;245;28826;-75
2023/08/17 00:22:28;;;;;;;2.73;2.53;;;17.50;99.90;;;;;;479166;245;29458;-80
2023/08/17 00:24:29;;;;;;;3.20;2.90;;;17.50;99.90;;;;;;488142;242;29322;-74
2023/08/17 00:26:30;;;;;;;2.93;2.63;;;17.50;99.90;;;;;;488153;240;29230;-75
2023/08/17 00:28:31;;;;;;;2.90;2.70;;;17.50;99.90;;;;;;487057;243;29304;-72
2023/08/17 00:30:35;;;;;;;2.70;2.60;;;17.50;99.90;;;;;;476214;249;28963;-75
2023/08/17 00:32:34;;;;;;;3.83;2.73;;;17.50;99.90;;;;;;486177;244;28731;-77
2023/08/17 00:34:35;;;;;;;3.00;2.80;;;17.50;99.90;;;;;;478676;246;28858;-74
2023/08/17 00:36:36;;;;;;;4.57;3.37;;;17.50;99.90;;;;;;486004;241;28762;-76
2023/08/17 00:38:38;;;;;;;3.00;2.80;;;17.50;99.90;;;;;;488525;241;28692;-73
2023/08/17 00:40:39;;;;;;;5.10;3.30;;;17.50;99.90;;;;;;489205;242;28718;-75
2023/08/17 00:42:40;;;;;;;4.40;3.07;;;17.50;99.90;;;;;;489198;242;28713;-73
2023/08/17 00:44:41;;;;;;;3.30;3.10;;;17.40;99.90;;;;;;489134;242;28711;-75
2023/08/17 00:46:43;;;;;;;3.10;2.80;;;17.40;99.90;;;;;;483420;241;28839;-77
2023/08/17 00:48:44;;;;;;;2.87;2.67;;;17.40;99.90;;;;;;484930;242;29148;-75
2023/08/17 00:50:45;;;;;;;3.20;2.90;;;17.40;99.90;;;;;;490147;242;29299;-74
2023/08/17 00:52:46;;;;;;;3.03;2.83;;;17.40;99.90;;;;;;489630;242;29491;-73
2023/08/17 00:54:48;;;;;;;3.17;2.87;;;17.40;99.90;;;;;;489607;242;28828;-72
2023/08/17 00:56:49;;;;;;;3.37;3.07;;;17.40;99.90;;;;;;485759;242;28822;-74
2023/08/17 00:58:53;;;;;;;3.83;2.70;;;17.30;99.90;;;;;;493156;240;28887;-73
2023/08/17 01:00:51;;;;;;;2.70;2.50;;;17.30;99.90;;;;;;486935;240;28697;-74
2023/08/17 01:02:53;;;;;;;2.73;2.53;;;17.20;99.90;;;;;;477586;249;28947;-75
2023/08/17 01:04:54;;;;;;;2.00;1.90;;;17.20;99.90;;;;;;486387;244;28765;-74
2023/08/17 01:06:58;;;;;;;2.23;2.03;;;17.20;99.90;;;;;;478900;246;28847;-75
2023/08/17 01:08:57;;;;;;;2.30;2.20;;;17.20;99.90;;;;;;491003;241;28844;-74
2023/08/17 01:11:01;;;;;;;2.33;2.23;;;17.20;99.90;;;;;;489518;241;28759;-76
2023/08/17 01:12:59;;;;;;;2.67;2.47;;;17.20;99.90;;;;;;477533;249;28874;-73
2023/08/17 01:15:03;;;;;;;2.40;2.20;;;17.10;99.90;;;;;;487852;243;28813;-74
2023/08/17 01:17:04;;;;;;;2.80;2.60;;;17.20;99.90;;;;;;477867;246;28808;-72
2023/08/17 01:19:08;;;;;;;5.00;2.70;;;17.10;99.90;;;;;;482559;242;28755;-72
2023/08/17 01:21:07;;;;;;;4.50;2.80;;;17.10;99.90;;;;;;482084;247;29288;-75
2023/08/17 01:23:08;;;;;;;2.80;2.60;;;17.10;99.90;;;;;;486830;241;29248;-73
2023/08/17 01:25:09;;;;;;;3.53;3.23;;;17.10;99.90;;;;;;493041;241;28820;-76
2023/08/17 01:27:13;;;;;;;4.57;2.70;;;17.10;99.90;;;;;;492308;241;28794;-75
2023/08/17 01:29:15;;;;;;;2.63;2.43;;;17.10;99.90;;;;;;487443;241;29288;-76
2023/08/17 01:31:16;;;;;;;2.70;2.50;;;17.10;99.90;;;;;;489753;240;28938;-74
2023/08/17 01:33:17;;;;;;;2.90;2.50;;;17.00;99.90;;;;;;492990;240;29261;-76
2023/08/17 01:35:21;;;;;;;2.70;2.50;;;17.00;99.90;;;;;;487110;243;28781;-75
2023/08/17 01:37:20;;;;;;;2.63;2.30;;;17.00;99.90;;;;;;489438;243;29278;-75
2023/08/17 01:39:21;;;;;;;2.50;2.40;;;17.00;99.90;;;;;;488751;241;29432;-75
2023/08/17 01:41:22;;;;;;;2.00;1.90;;;17.00;99.90;;;;;;487153;241;29219;-74
2023/08/17 01:43:26;;;;;;;2.10;2.00;;;16.90;99.90;;;;;;487049;242;29202;-77
2023/08/17 01:45:25;;;;;;;2.63;2.43;;;16.90;99.90;;;;;;485613;242;28825;-74
2023/08/17 01:47:26;;;;;;;2.17;2.07;;;16.90;99.90;;;;;;489694;242;28714;-75
2023/08/17 01:49:28;;;;;;;3.00;2.43;;;16.90;99.90;;;;;;489688;242;28712;-74
2023/08/17 01:51:29;;;;;;;2.43;2.03;;;16.90;99.90;;;;;;488596;240;29257;-75
2023/08/17 01:53:30;;;;;;;2.00;1.90;;;16.80;99.90;;;;;;487750;243;28700;-75
2023/08/17 01:55:31;;;;;;;2.00;1.90;;;16.90;99.90;;;;;;489668;242;28840;-75
2023/08/17 01:57:33;;;;;;;2.57;2.37;;;16.80;99.90;;;;;;489682;242;28825;-76
2023/08/17 01:59:40;;;;;;;2.60;2.40;;;16.80;99.90;;;;;;491484;242;28803;-73
2023/08/17 02:01:38;;;;;;;2.30;2.20;;;16.80;99.90;;;;;;490291;241;29382;-77
2023/08/17 02:03:42;;;;;;;1.83;1.73;;;16.80;99.90;;;;;;485255;241;29265;-73
2023/08/17 02:05:41;;;;;;;2.00;1.90;;;16.80;99.90;;;;;;486500;242;28761;-75
2023/08/17 02:07:42;;;;;;;1.80;1.70;;;16.70;99.90;;;;;;486966;242;28752;-74
2023/08/17 02:09:43;;;;;;;2.07;1.97;;;16.70;99.90;;;;;;476237;249;28847;-76
2023/08/17 02:11:50;;;;;;;2.40;2.30;;;16.70;99.90;;;;;;486354;243;28797;-76
2023/08/17 02:13:49;;;;;;;2.30;2.20;;;16.70;99.90;;;;;;478711;246;28724;-75
2023/08/17 02:15:50;;;;;;;3.00;2.00;;;16.60;99.90;;;;;;472742;250;29309;-74
2023/08/17 02:17:51;;;;;;;2.00;1.90;;;16.70;99.90;;;;;;478334;245;29155;-75
2023/08/17 02:19:55;;;;;;;3.70;2.50;;;16.70;99.90;;;;;;483790;245;29274;-72
2023/08/17 02:21:54;;;;;;;7.70;2.97;;;16.70;99.90;;;;;;482857;246;28834;-74
2023/08/17 02:23:55;;;;;;;3.13;2.57;;;16.70;99.90;;;;;;487725;240;28768;-78
2023/08/17 02:25:56;;;;;;;2.80;2.60;;;16.70;99.90;;;;;;486381;242;28888;-73
2023/08/17 02:27:57;;;;;;;3.60;2.70;;;16.70;99.90;;;;;;486579;242;28686;-75
2023/08/17 02:29:59;;;;;;;3.10;2.77;;;16.70;99.90;;;;;;476247;249;28866;-74
2023/08/17 02:32:00;;;;;;;3.20;2.90;;;16.70;99.90;;;;;;490933;240;28774;-74
2023/08/17 02:34:04;;;;;;;5.13;3.20;;;16.70;99.90;;;;;;490436;240;28703;-76
2023/08/17 02:36:05;;;;;;;3.30;3.10;;;16.70;99.90;;;;;;487928;240;28807;-76
2023/08/17 02:38:09;;;;;;;2.90;2.70;;;16.60;99.90;;;;;;492808;241;28701;-75
2023/08/17 02:40:08;;;;;;;3.10;2.90;;;16.50;99.90;;;;;;492586;241;28731;-76
2023/08/17 02:42:12;;;;;;;3.30;3.10;;;16.60;99.90;;;;;;487984;240;29725;-75
2023/08/17 02:44:10;;;;;;;3.33;3.03;;;16.50;99.90;;;;;;492599;241;29239;-77
2023/08/17 02:46:15;;;;;;;2.70;2.50;;;16.50;99.90;;;;;;492778;241;29266;-78
2023/08/17 02:48:13;;;;;;;2.90;2.70;;;16.50;99.90;;;;;;491125;242;28815;-75
2023/08/17 02:50:17;;;;;;;3.40;2.77;;;16.40;99.90;;;;;;490096;241;28802;-74
2023/08/17 02:52:15;;;;;;;3.20;2.60;;;16.40;99.90;;;;;;488303;240;28794;-74
2023/08/17 02:54:20;;;;;;;2.77;2.50;;;16.40;99.90;;;;;;492766;241;28707;-75
2023/08/17 02:56:20;;;;;;;13.90;3.03;;;16.30;99.90;;;;;;492613;241;28749;-73
2023/08/17 02:58:22;;;;;;;4.70;2.90;;;16.30;99.90;;;;;;492832;241;28734;-78
2023/08/17 03:00:26;;;;;;;3.00;2.80;;;16.30;99.90;;;;;;492473;241;28717;-77
2023/08/17 03:02:27;;;;;;;3.37;3.17;;;16.30;99.90;;;;;;488023;240;29408;-73
2023/08/17 03:04:28;;;;;;;3.80;3.33;;;16.40;99.90;;;;;;489122;240;29277;-75
2023/08/17 03:06:29;;;;;;;3.83;3.17;;;16.40;99.90;;;;;;491388;239;29315;-74
2023/08/17 03:08:31;;;;;;;4.07;2.47;;;16.40;99.90;;;;;;491476;241;28811;-75
2023/08/17 03:10:32;;;;;;;8.77;2.63;;;16.30;99.90;;;;;;491482;242;28823;-76
2023/08/17 03:12:33;;;;;;;3.00;2.43;;;16.20;99.90;;;;;;488610;241;28683;-73
2023/08/17 03:14:37;;;;;;;3.27;2.20;;;16.10;99.90;;;;;;484930;242;28833;-73
2023/08/17 03:16:39;;;;;;;2.97;2.77;;;16.10;99.90;;;;;;482974;246;28943;-74
2023/08/17 03:18:42;;;;;;;2.30;2.20;;;16.10;99.90;;;;;;482967;246;28850;-73
2023/08/17 03:20:44;;;;;;;2.80;2.60;;;16.10;99.90;;;;;;481772;242;28740;-74
2023/08/17 03:22:48;;;;;;;2.60;2.40;;;16.10;99.90;;;;;;485094;242;28885;-72
2023/08/17 03:24:47;;;;;;;2.60;2.40;;;16.10;99.90;;;;;;492066;240;28788;-78
2023/08/17 03:26:48;;;;;;;1.93;1.83;;;16.20;99.90;;;;;;492791;241;28710;-74
2023/08/17 03:28:49;;;;;;;2.70;2.30;;;16.20;99.90;;;;;;490416;241;28774;-77
2023/08/17 03:30:50;;;;;;;5.07;3.17;;;16.20;99.90;;;;;;478129;248;29206;-73
2023/08/17 03:32:52;;;;;;;4.17;2.93;;;16.20;99.90;;;;;;486018;242;29233;-74
2023/08/17 03:34:53;;;;;;;7.90;3.27;;;16.20;99.90;;;;;;487369;242;29402;-77
2023/08/17 03:36:57;;;;;;;2.73;2.53;;;16.10;99.90;;;;;;489820;241;28783;-73
2023/08/17 03:38:58;;;;;;;3.23;2.60;;;16.10;99.90;;;;;;490626;242;28901;-76
2023/08/17 03:40:59;;;;;;;2.30;2.10;;;16.00;99.90;;;;;;489455;243;28829;-77
2023/08/17 03:43:01;;;;;;;2.10;2.00;;;16.00;99.90;;;;;;488907;242;29291;-75
2023/08/17 03:45:02;;;;;;;2.10;2.00;;;16.00;99.90;;;;;;487321;241;29191;-77
2023/08/17 03:47:03;;;;;;;3.50;1.90;;;16.00;99.90;;;;;;491468;241;29381;-77
2023/08/17 03:49:04;;;;;;;1.90;1.80;;;15.90;99.90;;;;;;491348;242;29330;-74
2023/08/17 03:51:06;;;;;;;2.00;1.90;;;15.90;99.90;;;;;;491172;241;28924;-74
2023/08/17 03:53:07;;;;;;;2.43;1.90;;;15.90;99.90;;;;;;489977;242;28827;-76
2023/08/17 03:55:08;;;;;;;2.00;1.73;;;15.90;99.90;;;;;;483963;241;28719;-75
2023/08/17 03:57:09;;;;;;;2.63;2.43;;;15.90;99.90;;;;;;486312;241;28696;-74
2023/08/17 03:59:11;;;;;;;6.73;3.17;;;15.80;99.90;;;;;;486524;244;28701;-75
2023/08/17 04:01:13;;;;;;;2.77;2.57;;;15.80;99.90;;;;;;486239;242;28839;-74
2023/08/17 04:03:13;;;;;;;2.53;2.33;;;15.80;99.90;;;;;;492569;241;28815;-75
2023/08/17 04:05:14;;;;;;;4.43;2.33;;;15.80;99.90;;;;;;488580;241;28810;-73
2023/08/17 04:07:16;;;;;;;1.90;1.80;;;15.80;99.90;;;;;;491134;240;29158;-74
2023/08/17 04:09:17;;;;;;;1.90;1.80;;;15.70;99.90;;;;;;492255;241;29152;-72
2023/08/17 04:11:18;;;;;;;2.20;2.10;;;15.70;99.90;;;;;;491501;241;29333;-74
2023/08/17 04:13:19;;;;;;;1.70;1.60;;;15.70;99.90;;;;;;491456;241;28803;-74
2023/08/17 04:15:21;;;;;;;1.80;1.70;;;15.70;99.90;;;;;;491042;240;28800;-76
2023/08/17 04:17:22;;;;;;;2.10;2.00;;;15.80;99.90;;;;;;486717;241;28779;-74
2023/08/17 04:19:23;;;;;;;1.67;1.57;;;15.80;99.90;;;;;;489956;242;28811;-74
2023/08/17 04:21:24;;;;;;;2.03;1.93;;;15.80;99.90;;;;;;476267;247;28934;-74
2023/08/17 04:23:28;;;;;;;4.10;2.00;;;15.70;99.90;;;;;;491730;240;28904;-74
2023/08/17 04:25:32;;;;;;;7.00;2.00;;;15.70;99.90;;;;;;490005;241;28886;-72
2023/08/17 04:27:34;;;;;;;3.43;1.73;;;15.70;99.90;;;;;;487626;242;28730;-74
2023/08/17 04:29:35;;;;;;;6.33;1.70;;;15.60;99.90;;;;;;488725;241;28840;-75
2023/08/17 04:31:36;;;;;;;2.37;1.43;;;15.60;99.90;;;;;;487667;241;29353;-76
2023/08/17 04:33:37;;;;;;;1.77;1.67;;;15.50;99.90;;;;;;488959;240;29228;-75
2023/08/17 04:35:39;;;;;;;2.17;1.73;;;15.60;99.90;;;;;;487369;241;29544;-74
2023/08/17 04:37:40;;;;;;;2.00;1.90;;;15.70;99.90;;;;;;482191;245;28830;-75
2023/08/17 04:39:43;;;;;;;1.80;1.70;;;15.70;99.90;;;;;;482530;246;28808;-74
2023/08/17 04:41:42;;;;;;;2.10;2.00;;;15.70;99.90;;;;;;483354;242;28698;-76
2023/08/17 04:43:46;;;;;;;2.40;2.20;;;15.70;99.90;;;;;;490196;240;28865;-74
2023/08/17 04:45:47;;;;;;;1.97;1.87;;;15.80;99.90;;;;;;488516;241;28677;-75
2023/08/17 04:47:46;;;;;;;1.90;1.80;;;15.80;99.90;;;;;;491672;240;28696;-74
2023/08/17 04:49:47;;;;;;;2.63;2.00;;;15.80;99.90;;;;;;488061;239;28698;-75
2023/08/17 04:51:49;;;;;;;4.10;2.17;;;15.80;99.90;;;;;;497055;237;28671;-75
2023/08/17 04:53:50;;;;;;;2.33;2.23;;;15.80;99.90;;;;;;490918;240;28792;-72
2023/08/17 04:55:54;;;;;;;1.77;1.57;;;15.90;99.90;;;;;;487140;239;28756;-74
2023/08/17 04:57:52;;;;;;;4.20;2.20;;;15.80;99.90;;;;;;486125;244;28720;-73
2023/08/17 04:59:54;;;;;;;3.40;2.20;;;15.80;99.90;;;;;;488766;239;28747;-73
2023/08/17 05:01:56;;;;;;;1.87;1.77;;;15.90;99.90;;;;;;497904;238;29222;-74
2023/08/17 05:03:57;;;;;;;1.97;1.77;;;15.90;99.90;;;;;;487415;242;28876;-77
2023/08/17 05:06:01;;;;;;;4.47;1.83;;;15.90;99.90;;;;;;487787;240;28783;-73
2023/08/17 05:07:59;;;;;;;2.20;2.10;;;16.00;99.90;;;;;;485954;241;28699;-77
2023/08/17 05:10:03;;;;;;;2.40;2.20;;;16.10;99.90;;;;;;486019;243;29268;-73
2023/08/17 05:12:02;;;;;;;1.93;1.83;;;16.20;99.90;;;;;;485828;242;29220;-73
2023/08/17 05:14:03;;;;;;;2.03;1.93;;;16.20;99.90;;;;;;489149;241;29309;-76
2023/08/17 05:16:05;;;;;;;2.50;2.20;;;16.30;99.90;;;;;;488800;241;29279;-73
2023/08/17 05:18:09;;;;;;;3.50;2.50;;;16.40;99.90;;;;;;488265;242;28782;-75
2023/08/17 05:20:09;;;;;;;2.20;1.87;;;16.40;99.90;;;;;;476699;246;28895;-74
2023/08/17 05:22:11;;;;;;;2.53;2.33;;;16.50;99.90;;;;;;483298;240;28731;-77
2023/08/17 05:24:12;;;;;;;3.20;2.43;;;16.60;99.90;;;;;;492756;241;28702;-75
2023/08/17 05:26:17;;;;;;;53.50;5.30;;;16.60;99.90;;;;;;496435;239;28740;-72
2023/08/17 05:28:15;;;;;;;20.87;3.03;;;16.50;99.90;;;;;;498178;238;29155;-76
2023/08/17 05:30:19;;;;;;;85.30;6.47;;;16.30;99.90;;;;;;495224;238;29122;-74
2023/08/17 05:32:18;;;;;;;44.47;3.50;;;16.20;99.90;;;;;;482874;242;28724;-76
2023/08/17 05:34:20;;;;;;;27.50;4.23;;;16.20;99.90;;;;;;492222;240;28698;-74
2023/08/17 05:36:21;;;;;;;5.37;3.57;;;16.20;99.90;;;;;;496621;239;28722;-76
2023/08/17 05:38:25;;;;;;;6.50;3.40;;;16.40;99.90;;;;;;498543;237;28669;-74
2023/08/17 05:40:23;;;;;;;4.80;3.10;;;16.50;99.90;;;;;;495005;239;28833;-77
2023/08/17 05:42:25;;;;;;;3.03;2.60;;;16.60;99.90;;;;;;483809;242;28727;-73
2023/08/17 05:44:26;;;;;;;6.90;2.80;;;16.70;99.90;;;;;;486754;243;28891;-74
2023/08/17 05:46:27;;;;;;;5.43;2.73;;;16.80;99.90;;;;;;475365;249;28845;-74
2023/08/17 05:48:29;;;;;;;3.57;2.87;;;16.90;99.90;;;;;;484039;246;28913;-73
2023/08/17 05:50:31;;;;;;;10.83;3.30;;;16.90;99.90;;;;;;483244;242;29372;-74
2023/08/17 05:52:32;;;;;;;56.70;6.13;;;17.00;99.90;;;;;;482366;241;28713;-75
2023/08/17 05:54:36;;;;;;;48.43;5.13;;;16.90;99.90;;;;;;483694;242;28696;-76
2023/08/17 05:56:37;;;;;;;28.73;5.60;;;16.60;99.90;;;;;;487397;242;28768;-74
2023/08/17 05:58:41;;;;;;;43.77;5.00;;;16.50;99.90;;;;;;486310;244;28772;-74
2023/08/17 06:00:42;;;;;;;39.03;5.17;;;16.50;99.90;;;;;;485714;244;28715;-75
2023/08/17 06:02:49;;;;;;;11.27;3.47;;;16.40;99.90;;;;;;484612;242;28879;-75
2023/08/17 06:04:45;;;;;;;25.60;3.97;;;16.60;99.90;;;;;;485940;242;28740;-75
2023/08/17 06:06:46;;;;;;;28.97;3.00;;;16.60;99.90;;;;;;485461;242;28783;-78
2023/08/17 06:08:47;;;;;;;24.47;3.97;;;16.60;99.90;;;;;;489207;243;28697;-74
2023/08/17 06:10:49;;;;;;;13.30;4.00;;;16.60;99.90;;;;;;487745;241;29251;-75
2023/08/17 06:12:50;;;;;;;13.87;3.50;;;16.80;99.90;;;;;;487547;243;29165;-75
2023/08/17 06:14:51;;;;;;;3.77;3.07;;;17.00;99.90;;;;;;476188;249;28892;-75
2023/08/17 06:16:52;;;;;;;3.00;2.70;;;17.20;99.90;;;;;;495539;239;28763;-77
2023/08/17 06:18:54;;;;;;;3.10;2.80;;;17.40;99.90;;;;;;498404;238;28763;-75
2023/08/17 06:20:55;;;;;;;4.60;3.10;;;17.60;99.90;;;;;;489471;238;28825;-74
2023/08/17 06:22:56;;;;;;;4.50;3.00;;;17.70;99.90;;;;;;486504;242;28870;-76
2023/08/17 06:24:58;;;;;;;3.73;2.50;;;17.60;99.90;;;;;;491701;241;28869;-73
2023/08/17 06:26:59;;;;;;;2.40;2.20;;;17.70;99.90;;;;;;483510;245;28878;-76
2023/08/17 06:29:00;;;;;;;3.03;2.73;;;17.70;99.90;;;;;;484061;246;28938;-76
2023/08/17 06:31:01;;;;;;;2.90;2.70;;;17.80;99.90;;;;;;485065;242;29349;-74
2023/08/17 06:33:02;;;;;;;3.20;2.90;;;18.00;99.90;;;;;;489301;240;28785;-75
2023/08/17 06:35:04;;;;;;;5.33;3.07;;;17.90;99.90;;;;;;488935;243;28661;-76
2023/08/17 06:37:05;;;;;;;3.80;2.97;;;17.90;99.90;;;;;;486908;243;28727;-76
2023/08/17 06:39:06;;;;;;;3.80;3.03;;;17.90;99.90;;;;;;482981;243;28794;-74
2023/08/17 06:41:07;;;;;;;5.33;3.30;;;17.80;99.90;;;;;;487955;242;28778;-75
2023/08/17 06:43:09;;;;;;;3.43;3.13;;;17.80;99.90;;;;;;489528;242;28857;-75
2023/08/17 06:45:10;;;;;;;5.03;3.70;;;17.80;99.90;;;;;;489655;240;28863;-76
2023/08/17 06:47:11;;;;;;;3.70;2.80;;;17.50;99.90;;;;;;491341;241;28780;-75
2023/08/17 06:49:12;;;;;;;4.80;3.33;;;17.50;99.90;;;;;;486120;241;28836;-75
2023/08/17 06:51:14;;;;;;;6.40;3.47;;;17.70;99.90;;;;;;487595;243;29146;-75
2023/08/17 06:53:15;;;;;;;3.93;3.50;;;17.70;99.90;;;;;;489644;243;29242;-76
2023/08/17 06:55:16;;;;;;;4.80;3.23;;;17.50;99.90;;;;;;485613;242;29305;-72
2023/08/17 06:57:18;;;;;;;4.50;3.47;;;17.50;99.90;;;;;;483736;242;28814;-73
2023/08/17 06:59:19;;;;;;;3.57;3.30;;;17.60;99.90;;;;;;488020;241;28862;-78
2023/08/17 07:01:20;;;;;;;4.03;3.30;;;17.80;99.90;;;;;;488151;241;28774;-74
2023/08/17 07:03:21;;;;;;;3.23;2.90;;;17.90;99.90;;;;;;489602;241;28799;-72
2023/08/17 07:05:25;;;;;;;3.80;3.40;;;18.10;99.90;;;;;;486608;241;28798;-75
2023/08/17 07:07:24;;;;;;;4.13;3.33;;;18.30;99.90;;;;;;488465;242;28790;-76
2023/08/17 07:09:28;;;;;;;5.20;3.70;;;18.20;99.90;;;;;;486835;242;28952;-74
2023/08/17 07:11:27;;;;;;;2.80;2.60;;;18.10;99.90;;;;;;486634;242;29390;-75
2023/08/17 07:13:29;;;;;;;4.00;3.70;;;18.20;99.90;;;;;;487040;242;29363;-76
2023/08/17 07:15:30;;;;;;;3.07;2.87;;;18.30;99.90;;;;;;484538;241;28830;-75
2023/08/17 07:17:31;;;;;;;4.10;3.17;;;18.50;99.90;;;;;;484428;241;28797;-74
2023/08/17 07:19:32;;;;;;;10.73;3.50;;;18.60;99.90;;;;;;485443;241;28792;-76
2023/08/17 07:21:34;;;;;;;3.83;3.40;;;18.60;99.90;;;;;;487571;242;29313;-75
2023/08/17 07:23:38;;;;;;;4.30;3.90;;;18.60;99.90;;;;;;486243;240;28842;-75
2023/08/17 07:25:36;;;;;;;3.77;3.47;;;18.40;99.90;;;;;;490059;242;29234;-75
2023/08/17 07:27:38;;;;;;;3.13;2.93;;;18.40;99.90;;;;;;484370;241;28808;-75
2023/08/17 07:29:39;;;;;;;3.93;3.63;;;18.40;99.90;;;;;;484533;243;29211;-75
2023/08/17 07:31:40;;;;;;;6.10;3.70;;;18.30;99.90;;;;;;487029;239;29261;-73
2023/08/17 07:33:41;;;;;;;5.03;4.47;;;18.40;99.90;;;;;;476345;248;28834;-76
2023/08/17 07:35:43;;;;;;;6.60;4.73;;;18.50;99.90;;;;;;486349;243;28731;-75
2023/08/17 07:37:44;;;;;;;5.10;4.37;;;18.20;99.90;;;;;;490306;241;28808;-78
2023/08/17 07:39:45;;;;;;;6.30;4.87;;;18.40;99.90;;;;;;487124;241;28921;-75
2023/08/17 07:41:46;;;;;;;6.20;5.27;;;18.60;99.90;;;;;;483070;243;28821;-74
2023/08/17 07:43:48;;;;;;;6.60;5.43;;;18.30;99.90;;;;;;483038;246;28852;-74
2023/08/17 07:45:49;;;;;;;5.23;4.43;;;18.20;99.90;;;;;;483055;246;28875;-75
2023/08/17 07:47:50;;;;;;;6.40;4.93;;;18.00;99.90;;;;;;484591;242;29225;-76
2023/08/17 07:49:52;;;;;;;4.40;4.00;;;18.10;99.90;;;;;;489742;242;29292;-74
2023/08/17 07:51:54;;;;;;;6.43;4.77;;;18.00;99.90;;;;;;486711;243;29297;-75
2023/08/17 07:53:55;;;;;;;5.80;5.17;;;17.90;99.90;;;;;;483063;241;29384;-75
2023/08/17 07:55:59;;;;;;;5.53;4.93;;;18.00;99.90;;;;;;483061;246;28853;-74
2023/08/17 07:58:06;;;;;;;12.37;5.67;;;18.00;99.90;;;;;;483070;246;28923;-75
2023/08/17 08:00:04;;;;;;;7.40;6.40;;;18.10;99.90;;;;;;482915;246;29392;-73
2023/08/17 08:02:05;;;;;;;18.93;7.30;;;18.00;99.90;;;;;;483072;246;29337;-75
2023/08/17 08:04:07;;;;;;;5.50;4.60;;;17.90;99.90;;;;;;483057;246;28933;-75
2023/08/17 08:06:08;;;;;;;3.70;3.40;;;18.30;99.90;;;;;;483058;246;28748;-75
2023/08/17 08:08:09;;;;;;;4.13;3.83;;;18.80;99.90;;;;;;483059;246;29202;-75
2023/08/17 08:10:10;;;;;;;4.70;4.20;;;19.10;99.90;;;;;;483050;246;29302;-74
2023/08/17 08:12:14;;;;;;;6.70;5.20;;;19.40;99.90;;;;;;483060;242;29837;-76
2023/08/17 08:14:13;;;;;;;8.80;5.50;;;19.50;99.90;;;;;;482968;246;29411;-77
2023/08/17 08:16:14;;;;;;;5.43;3.93;;;19.20;99.90;;;;;;483074;246;28856;-76
2023/08/17 08:18:16;;;;;;;5.27;4.70;;;19.20;99.90;;;;;;483072;246;28937;-75
2023/08/17 08:20:17;;;;;;;5.50;5.00;;;19.00;99.90;;;;;;483059;246;29401;-76
2023/08/17 08:22:18;;;;;;;6.00;5.40;;;18.80;99.90;;;;;;483067;246;29300;-74
2023/08/17 08:24:19;;;;;;;5.17;4.73;;;18.80;99.90;;;;;;483029;246;29205;-74
2023/08/17 08:26:23;;;;;;;5.90;5.20;;;19.00;99.90;;;;;;483017;246;28755;-73
2023/08/17 08:28:22;;;;;;;4.87;4.47;;;19.40;99.90;;;;;;483727;245;28755;-75
2023/08/17 08:30:23;;;;;;;4.10;3.80;;;19.60;99.90;;;;;;482934;246;28832;-76
2023/08/17 08:32:28;;;;;;;6.03;4.17;;;19.90;99.90;;;;;;483010;246;29294;-74
2023/08/17 08:34:32;;;;;;;4.60;4.20;;;20.00;99.90;;;;;;483000;246;29302;-75
2023/08/17 08:36:30;;;;;;;5.70;5.13;;;20.00;99.90;;;;;;482649;246;28828;-74
2023/08/17 08:38:34;;;;;;;5.10;4.60;;;19.90;99.90;;;;;;482997;246;28764;-74
2023/08/17 08:40:33;;;;;;;5.77;5.23;;;20.20;99.90;;;;;;482904;246;29298;-76
2023/08/17 08:42:37;;;;;;;4.80;4.40;;;20.00;99.90;;;;;;483040;246;29311;-73
2023/08/17 08:44:35;;;;;;;5.43;4.70;;;19.90;99.90;;;;;;482842;246;29237;-74
2023/08/17 08:46:37;;;;;;;5.23;4.00;;;20.40;99.90;;;;;;482967;246;28728;-74
2023/08/17 08:48:38;;;;;;;4.73;4.33;;;20.80;99.90;;;;;;482947;245;28824;-75
2023/08/17 08:50:40;;;;;;;7.23;5.47;;;20.90;99.90;;;;;;483010;246;28785;-75
2023/08/17 08:52:44;;;;;;;6.67;6.07;;;20.20;99.90;;;;;;482947;246;28754;-74
2023/08/17 08:54:46;;;;;;;6.57;5.50;;;19.90;99.90;;;;;;482994;246;28826;-75
2023/08/17 08:56:47;;;;;;;6.13;5.43;;;20.00;99.90;;;;;;483448;242;28713;-73
2023/08/17 08:58:48;;;;;;;6.47;5.87;;;20.30;99.90;;;;;;483047;246;28850;-74
2023/08/17 09:00:50;;;;;;;7.40;6.70;;;20.40;99.90;;;;;;483023;246;28861;-77
2023/08/17 09:02:51;;;;;;;7.40;5.57;;;20.50;99.90;;;;;;483024;246;28938;-73
2023/08/17 09:04:53;;;;;;;10.03;8.70;;;20.50;99.90;;;;;;483005;246;28832;-76
2023/08/17 09:06:54;;;;;;;10.03;9.03;;;19.90;99.90;;;;;;483037;245;28748;-76
2023/08/17 09:08:55;;;;;;;8.90;7.57;;;19.40;99.90;;;;;;483009;246;28761;-74
2023/08/17 09:11:00;;;;;;;13.70;9.93;;;19.30;99.90;;;;;;483001;246;28942;-75
2023/08/17 09:13:04;;;;;;;8.30;7.10;;;19.30;99.90;;;;;;483042;246;29184;-74
2023/08/17 09:15:03;;;;;;;7.30;6.60;;;19.50;99.90;;;;;;482868;246;29306;-74
2023/08/17 09:17:07;;;;;;;5.43;4.97;;;19.80;99.90;;;;;;482991;246;28748;-76
2023/08/17 09:19:08;;;;;;;6.70;6.00;;;20.00;99.90;;;;;;482124;246;28775;-75
2023/08/17 09:21:15;;;;;;;6.80;5.67;;;20.20;99.90;;;;;;482144;245;28828;-74
2023/08/17 09:23:17;;;;;;;5.93;5.43;;;20.20;99.90;;;;;;482134;245;28773;-74
2023/08/17 09:25:18;;;;;;;5.53;5.10;;;20.40;99.90;;;;;;482168;245;29198;-74
2023/08/17 09:27:19;;;;;;;5.80;5.17;;;20.30;99.90;;;;;;483033;246;28765;-74
2023/08/17 09:29:20;;;;;;;9.33;8.27;;;20.60;99.90;;;;;;483024;246;29754;-75
2023/08/17 09:31:22;;;;;;;7.77;7.07;;;20.20;99.90;;;;;;483054;246;29208;-75
2023/08/17 09:33:23;;;;;;;9.50;8.60;;;20.30;99.90;;;;;;483023;246;28950;-76
2023/08/17 09:35:26;;;;;;;8.87;7.97;;;19.70;99.90;;;;;;483142;246;28838;-75
2023/08/17 09:37:30;;;;;;;8.60;7.77;;;19.70;99.90;;;;;;483075;246;29338;-76
2023/08/17 09:39:32;;;;;;;9.73;6.10;;;19.90;99.90;;;;;;483043;246;28844;-74
2023/08/17 09:41:33;;;;;;;7.20;6.60;;;20.10;99.90;;;;;;483050;246;28877;-75
2023/08/17 09:43:36;;;;;;;8.03;7.33;;;20.40;99.90;;;;;;483027;246;28835;-75
2023/08/17 09:45:37;;;;;;;6.70;6.20;;;20.40;99.90;;;;;;483033;246;28873;-76
2023/08/17 09:47:38;;;;;;;5.93;5.43;;;20.40;99.90;;;;;;483083;246;28839;-75
2023/08/17 09:49:43;;;;;;;5.90;5.40;;;20.50;99.90;;;;;;483061;246;28907;-74
2023/08/17 09:51:41;;;;;;;6.43;5.83;;;20.60;99.90;;;;;;482687;246;28850;-75
2023/08/17 09:53:42;;;;;;;11.40;7.53;;;20.80;99.90;;;;;;483063;246;28949;-75
2023/08/17 09:55:43;;;;;;;5.60;5.10;;;20.90;99.90;;;;;;483092;246;29399;-75
2023/08/17 09:57:49;;;;;;;6.37;5.87;;;21.10;99.90;;;;;;483082;246;28866;-75
2023/08/17 09:59:57;;;;;;;6.63;5.97;;;21.10;99.90;;;;;;483533;244;28651;-75
2023/08/17 10:01:48;;;;;;;6.33;5.83;;;21.10;99.90;;;;;;486340;242;28564;-75
2023/08/17 10:03:50;;;;;;;7.73;5.50;;;21.00;99.90;;;;;;481768;246;29219;-74
2023/08/17 10:05:51;;;;;;;7.43;6.30;;;21.10;99.90;;;;;;481742;246;28758;-74
2023/08/17 10:07:52;;;;;;;6.37;5.87;;;21.20;99.90;;;;;;481768;245;28749;-75
2023/08/17 10:09:54;;;;;;;6.30;5.80;;;21.20;99.90;;;;;;481762;246;29494;-75
2023/08/17 10:11:55;;;;;;;5.37;4.97;;;21.10;99.90;;;;;;481750;246;28812;-75
2023/08/17 10:13:56;;;;;;;7.53;5.83;;;21.20;99.90;;;;;;481772;245;28845;-75
2023/08/17 10:15:58;;;;;;;6.20;5.70;;;21.50;99.90;;;;;;481777;246;28809;-75
2023/08/17 10:18:00;;;;;;;7.90;7.10;;;21.40;99.90;;;;;;481345;246;28856;-75
2023/08/17 10:20:03;;;;;;;7.13;6.53;;;21.10;99.90;;;;;;481564;246;29356;-75
2023/08/17 10:22:04;;;;;;;6.90;6.20;;;21.10;99.90;;;;;;482525;246;28873;-75
2023/08/17 10:24:06;;;;;;;6.87;6.27;;;21.30;99.90;;;;;;481743;246;29212;-74
2023/08/17 10:26:08;;;;;;;6.40;5.90;;;21.30;99.90;;;;;;481771;246;28749;-74
2023/08/17 10:28:08;;;;;;;6.30;5.80;;;21.40;99.90;;;;;;481702;246;29202;-73
2023/08/17 10:30:09;;;;;;;7.80;7.00;;;21.50;99.90;;;;;;481770;245;29304;-73